Haicheng, China
Current Conditions -  °F | °C
As of 3:00 AM on Friday 24 Oct 2014 (Local Time) from ZYTX Reporting Station
Overcast Overcast  
Wind Chill: 18°   Ceiling: 3300
Heat Index: 18°   Visibility: 4mi
Dew Point: 10°   Wind: 9mph
Humidity: 59%   Direction: 170°S
Pressure: 29.85"   Gusts: NA
Location:  40.86°N, 122.74°E
Report Text: ZYTX 231900Z 17004MPS 140V210 6000 OVC033 18/10 Q1011 NOSIG
Loading
Personal Weather Stations






























Interactive Weather Map
Tropical Storm Tracking
New forecast layout! Learn more

10-Day Weather Forecast

Advertisements
Track Severe Weather on mobile